Theodore Roosevelt National Park, ND

01:24 MST le 07 février 2016 (GMT -0700)
Southview | | Change Station
CLOSE
Current Station
Stations météorologiques personnelles
Location: Dickinson, ND
Altitude: 2434 ft
Stations météo à proximité
Avis météorologiques actifs: High Wind Warning

Alt. 2434 ft 46.86 °N, 102.78 °W | Updated 14 minutes ago

Nuageux
Nuageux
34.2 ° F
Paraît 26 ° F
N
10.4
Vent Variable Vent de Ouest

Aujourd'hui
Haut(e) -- | Bas -- ° F
--% Risque de précip.
Hier
Haut(e) -- | Bas -- ° F
Precip. -- pouce
Pression 29.91 pouce
Visibilité 10.0 Miles terrestres
Nuages Peu 9000 ft
Nuages épars 11000 ft
Refroidissement éolien 26 ° F
Point de rosée 26 ° F
Humidité 71%
Précipitations 0.00 pouce
Profondeur de la couche neigeuse Non disponible.
7:08 AM 5:02 PM
Lune descendante, 2% visible
METAR KDIK 070756Z AUTO 28021G30KT 10SM FEW090 SCT110 01/M05 A2986 RMK AO2 PK WND 29034/0744 SLP126 T00061050
Pression 29.91 pouce
Visibilité 10.0 Miles terrestres
Nuages Peu 9000 ft
Nuages épars 11000 ft
Refroidissement éolien 26 ° F
Point de rosée 26 ° F
Humidité 71%
Précipitations 0.00 pouce
Profondeur de la couche neigeuse Non disponible.
7:08 AM 5:02 PM
Lune descendante, 2% visible
METAR KDIK 070756Z AUTO 28021G30KT 10SM FEW090 SCT110 01/M05 A2986 RMK AO2 PK WND 29034/0744 SLP126 T00061050

10-Day Weather Forecast

Almanac

Astronomie

Feb. 07, 2016 Lever Coucher
Temps réel
Crépuscule civil
Crépuscule nautique
Crépuscule astronomique
Lune
Durée de lumière visible
Longueur du jour
Tomorrow will be .
, % of the Moon is Illuminated

Extrêmes aujourd'hui

State Highs State Lows

Community

WunderPhotos

Upload Photos

1,891,171 Photos téléchargées !

WunderBlog® & News

Nearby

Qualité de l'air

  Qualité de l'air Indice de la qualité de l'air Polluant
Not available.

Épaisseur de neige

Station Depth Altitude

Activité sismique

Ville Distance Mag. Time & Date
Minimum magnitude displayed is 2.5.

Températures des eaux côtières

Lieu Température

Stations

Stations météo à proximité

Emplacement de la station Température Refroidissement éolien Point de rosée Humidité Vent Precip. Alt. Mise à jour Type
                   

Watches & Warnings

High Wind Warning
Issued: 20:49 MST Feb. 6, 2016 – National Weather Service

... High Wind Warning remains in effect until 9 PM CST /8 PM MST/
Sunday...

* timing... through early Sunday evening... with the strongest winds
expected during the day Sunday.

* Winds... northwest winds gusting up to 65 mph.

* Impacts... travel may be hazardous over western North Dakota.

Precautionary/preparedness actions...

A High Wind Warning means a hazardous high wind event is expected
or occurring. Sustained wind speeds of at least 40 mph or gusts
of 58 mph or more can lead to property damage.